sensor_id;sensor_type;location;lat;lon;timestamp;P1;durP1;ratioP1;P2;durP2;ratioP2
71888;SDS011;59762;49.998;14.858;2022-12-29T00:02:20;1.25;;;1.08;;
71888;SDS011;59762;49.998;14.858;2022-12-29T00:04:46;0.57;;;0.57;;
71888;SDS011;59762;49.998;14.858;2022-12-29T00:07:11;3.47;;;1.77;;
71888;SDS011;59762;49.998;14.858;2022-12-29T00:09:37;4.38;;;1.33;;
71888;SDS011;59762;49.998;14.858;2022-12-29T00:12:03;1.67;;;1.58;;
71888;SDS011;59762;49.998;14.858;2022-12-29T00:14:30;2.20;;;0.50;;
71888;SDS011;59762;49.998;14.858;2022-12-29T00:17:14;3.15;;;1.17;;
71888;SDS011;59762;49.998;14.858;2022-12-29T00:19:40;1.17;;;0.88;;
71888;SDS011;59762;49.998;14.858;2022-12-29T00:22:24;0.60;;;0.60;;
71888;SDS011;59762;49.998;14.858;2022-12-29T00:25:10;1.92;;;0.80;;
71888;SDS011;59762;49.998;14.858;2022-12-29T00:27:56;13.88;;;1.10;;
71888;SDS011;59762;49.998;14.858;2022-12-29T00:30:40;1.17;;;1.05;;
71888;SDS011;59762;49.998;14.858;2022-12-29T00:33:26;2.92;;;1.10;;
71888;SDS011;59762;49.998;14.858;2022-12-29T00:36:46;2.13;;;1.33;;
71888;SDS011;59762;49.998;14.858;2022-12-29T00:39:07;5.72;;;3.67;;
71888;SDS011;59762;49.998;14.858;2022-12-29T00:41:56;3.47;;;1.10;;
71888;SDS011;59762;49.998;14.858;2022-12-29T00:44:45;0.45;;;0.45;;
71888;SDS011;59762;49.998;14.858;2022-12-29T00:47:11;2.00;;;1.27;;
71888;SDS011;59762;49.998;14.858;2022-12-29T00:49:37;0.45;;;0.45;;
71888;SDS011;59762;49.998;14.858;2022-12-29T00:52:12;1.50;;;1.40;;
71888;SDS011;59762;49.998;14.858;2022-12-29T00:54:38;0.82;;;0.70;;
71888;SDS011;59762;49.998;14.858;2022-12-29T00:57:06;0.77;;;0.60;;
71888;SDS011;59762;49.998;14.858;2022-12-29T00:59:36;1.35;;;1.25;;
71888;SDS011;59762;49.998;14.858;2022-12-29T01:02:03;2.03;;;1.83;;
71888;SDS011;59762;49.998;14.858;2022-12-29T01:04:28;0.70;;;0.70;;
71888;SDS011;59762;49.998;14.858;2022-12-29T01:06:54;1.63;;;0.85;;
71888;SDS011;59762;49.998;14.858;2022-12-29T01:09:20;2.05;;;1.73;;
71888;SDS011;59762;49.998;14.858;2022-12-29T01:12:05;3.60;;;0.82;;
71888;SDS011;59762;49.998;14.858;2022-12-29T01:14:32;4.18;;;1.27;;
71888;SDS011;59762;49.998;14.858;2022-12-29T01:16:58;0.47;;;0.47;;
71888;SDS011;59762;49.998;14.858;2022-12-29T01:19:24;2.78;;;1.25;;
71888;SDS011;59762;49.998;14.858;2022-12-29T01:21:50;1.17;;;0.82;;
71888;SDS011;59762;49.998;14.858;2022-12-29T01:24:17;3.38;;;1.17;;
71888;SDS011;59762;49.998;14.858;2022-12-29T01:26:43;0.65;;;0.65;;
71888;SDS011;59762;49.998;14.858;2022-12-29T01:29:09;1.20;;;0.98;;
71888;SDS011;59762;49.998;14.858;2022-12-29T01:31:35;4.20;;;1.20;;
71888;SDS011;59762;49.998;14.858;2022-12-29T01:34:01;2.75;;;0.88;;
71888;SDS011;59762;49.998;14.858;2022-12-29T01:36:27;0.43;;;0.43;;
71888;SDS011;59762;49.998;14.858;2022-12-29T01:38:52;1.45;;;0.50;;
71888;SDS011;59762;49.998;14.858;2022-12-29T01:41:18;0.93;;;0.82;;
71888;SDS011;59762;49.998;14.858;2022-12-29T01:43:45;2.05;;;1.23;;
71888;SDS011;59762;49.998;14.858;2022-12-29T01:46:19;0.38;;;0.38;;
71888;SDS011;59762;49.998;14.858;2022-12-29T01:48:46;0.90;;;0.90;;
71888;SDS011;59762;49.998;14.858;2022-12-29T01:51:14;0.93;;;0.90;;
71888;SDS011;59762;49.998;14.858;2022-12-29T01:53:41;1.52;;;0.88;;
71888;SDS011;59762;49.998;14.858;2022-12-29T01:56:09;2.33;;;0.90;;
71888;SDS011;59762;49.998;14.858;2022-12-29T01:58:38;1.00;;;0.85;;
71888;SDS011;59762;49.998;14.858;2022-12-29T02:01:07;1.73;;;0.95;;
71888;SDS011;59762;49.998;14.858;2022-12-29T02:03:32;1.48;;;0.77;;
71888;SDS011;59762;49.998;14.858;2022-12-29T02:06:21;1.40;;;1.00;;
71888;SDS011;59762;49.998;14.858;2022-12-29T02:08:49;2.35;;;1.08;;
71888;SDS011;59762;49.998;14.858;2022-12-29T02:11:17;1.50;;;0.60;;
71888;SDS011;59762;49.998;14.858;2022-12-29T02:13:44;0.80;;;0.80;;
71888;SDS011;59762;49.998;14.858;2022-12-29T02:24:25;0.30;;;0.30;;
71888;SDS011;59762;49.998;14.858;2022-12-29T02:30:06;1.55;;;1.10;;
71888;SDS011;59762;49.998;14.858;2022-12-29T02:38:19;1.90;;;1.02;;
71888;SDS011;59762;49.998;14.858;2022-12-29T02:40:57;0.40;;;0.40;;
71888;SDS011;59762;49.998;14.858;2022-12-29T02:46:36;2.88;;;1.50;;
71888;SDS011;59762;49.998;14.858;2022-12-29T02:49:18;1.27;;;1.08;;
71888;SDS011;59762;49.998;14.858;2022-12-29T02:54:35;2.13;;;1.40;;
71888;SDS011;59762;49.998;14.858;2022-12-29T02:59:39;1.02;;;0.77;;
71888;SDS011;59762;49.998;14.858;2022-12-29T03:13:25;2.22;;;0.75;;
71888;SDS011;59762;49.998;14.858;2022-12-29T03:21:57;0.52;;;0.47;;
71888;SDS011;59762;49.998;14.858;2022-12-29T03:24:46;0.43;;;0.43;;
71888;SDS011;59762;49.998;14.858;2022-12-29T03:27:17;0.50;;;0.45;;
71888;SDS011;59762;49.998;14.858;2022-12-29T03:29:57;0.65;;;0.65;;
71888;SDS011;59762;49.998;14.858;2022-12-29T03:32:31;0.98;;;0.63;;
71888;SDS011;59762;49.998;14.858;2022-12-29T03:34:59;0.40;;;0.40;;
71888;SDS011;59762;49.998;14.858;2022-12-29T03:37:31;1.00;;;0.90;;
71888;SDS011;59762;49.998;14.858;2022-12-29T03:40:04;1.85;;;0.60;;
71888;SDS011;59762;49.998;14.858;2022-12-29T03:42:31;1.05;;;0.55;;
71888;SDS011;59762;49.998;14.858;2022-12-29T03:44:59;4.90;;;1.52;;
71888;SDS011;59762;49.998;14.858;2022-12-29T03:47:25;3.03;;;1.17;;
71888;SDS011;59762;49.998;14.858;2022-12-29T03:49:51;0.77;;;0.70;;
71888;SDS011;59762;49.998;14.858;2022-12-29T03:52:17;3.78;;;1.25;;
71888;SDS011;59762;49.998;14.858;2022-12-29T03:54:43;3.72;;;1.08;;
71888;SDS011;59762;49.998;14.858;2022-12-29T03:57:10;0.28;;;0.28;;
71888;SDS011;59762;49.998;14.858;2022-12-29T03:59:35;0.63;;;0.63;;
71888;SDS011;59762;49.998;14.858;2022-12-29T04:02:01;1.65;;;0.75;;
71888;SDS011;59762;49.998;14.858;2022-12-29T04:04:27;0.32;;;0.32;;
71888;SDS011;59762;49.998;14.858;2022-12-29T04:06:52;0.28;;;0.28;;
71888;SDS011;59762;49.998;14.858;2022-12-29T04:09:18;3.05;;;1.02;;
71888;SDS011;59762;49.998;14.858;2022-12-29T04:11:44;0.38;;;0.38;;
71888;SDS011;59762;49.998;14.858;2022-12-29T04:14:09;0.35;;;0.35;;
71888;SDS011;59762;49.998;14.858;2022-12-29T04:16:35;1.15;;;0.95;;
71888;SDS011;59762;49.998;14.858;2022-12-29T04:19:04;1.17;;;0.50;;
71888;SDS011;59762;49.998;14.858;2022-12-29T04:21:30;0.93;;;0.75;;
71888;SDS011;59762;49.998;14.858;2022-12-29T04:23:56;0.85;;;0.65;;
71888;SDS011;59762;49.998;14.858;2022-12-29T04:26:21;0.75;;;0.75;;
71888;SDS011;59762;49.998;14.858;2022-12-29T04:28:47;2.92;;;1.27;;
71888;SDS011;59762;49.998;14.858;2022-12-29T04:31:13;0.73;;;0.65;;
71888;SDS011;59762;49.998;14.858;2022-12-29T04:33:38;2.70;;;1.05;;
71888;SDS011;59762;49.998;14.858;2022-12-29T04:36:04;0.68;;;0.68;;
71888;SDS011;59762;49.998;14.858;2022-12-29T04:38:30;0.52;;;0.52;;
71888;SDS011;59762;49.998;14.858;2022-12-29T04:40:58;0.60;;;0.60;;
71888;SDS011;59762;49.998;14.858;2022-12-29T04:43:25;0.57;;;0.35;;
71888;SDS011;59762;49.998;14.858;2022-12-29T04:45:50;0.60;;;0.60;;
71888;SDS011;59762;49.998;14.858;2022-12-29T04:48:16;0.45;;;0.35;;
71888;SDS011;59762;49.998;14.858;2022-12-29T04:50:42;0.82;;;0.80;;
71888;SDS011;59762;49.998;14.858;2022-12-29T04:53:07;2.33;;;0.93;;
71888;SDS011;59762;49.998;14.858;2022-12-29T04:55:33;1.27;;;0.47;;
71888;SDS011;59762;49.998;14.858;2022-12-29T04:57:59;0.82;;;0.60;;
71888;SDS011;59762;49.998;14.858;2022-12-29T05:00:24;1.23;;;0.88;;
71888;SDS011;59762;49.998;14.858;2022-12-29T05:02:50;0.75;;;0.73;;
71888;SDS011;59762;49.998;14.858;2022-12-29T05:05:16;0.43;;;0.43;;
71888;SDS011;59762;49.998;14.858;2022-12-29T05:07:42;0.35;;;0.35;;
71888;SDS011;59762;49.998;14.858;2022-12-29T05:10:08;1.02;;;0.95;;
71888;SDS011;59762;49.998;14.858;2022-12-29T05:12:34;0.30;;;0.30;;
71888;SDS011;59762;49.998;14.858;2022-12-29T05:15:02;3.58;;;0.60;;
71888;SDS011;59762;49.998;14.858;2022-12-29T05:17:29;1.10;;;1.00;;
71888;SDS011;59762;49.998;14.858;2022-12-29T05:19:55;1.42;;;0.88;;
71888;SDS011;59762;49.998;14.858;2022-12-29T05:22:21;0.38;;;0.38;;
71888;SDS011;59762;49.998;14.858;2022-12-29T05:24:47;0.70;;;0.70;;
71888;SDS011;59762;49.998;14.858;2022-12-29T05:27:13;1.38;;;0.43;;
71888;SDS011;59762;49.998;14.858;2022-12-29T05:29:39;0.30;;;0.30;;
71888;SDS011;59762;49.998;14.858;2022-12-29T05:32:05;0.50;;;0.50;;
71888;SDS011;59762;49.998;14.858;2022-12-29T05:34:31;0.40;;;0.40;;
71888;SDS011;59762;49.998;14.858;2022-12-29T05:36:56;2.13;;;0.70;;
71888;SDS011;59762;49.998;14.858;2022-12-29T05:39:22;0.77;;;0.77;;
71888;SDS011;59762;49.998;14.858;2022-12-29T05:41:48;1.40;;;0.73;;
71888;SDS011;59762;49.998;14.858;2022-12-29T05:44:14;0.57;;;0.55;;
71888;SDS011;59762;49.998;14.858;2022-12-29T05:46:39;0.73;;;0.60;;
71888;SDS011;59762;49.998;14.858;2022-12-29T05:49:05;1.58;;;1.00;;
71888;SDS011;59762;49.998;14.858;2022-12-29T05:51:31;2.13;;;1.75;;
71888;SDS011;59762;49.998;14.858;2022-12-29T05:53:57;6.32;;;3.33;;
71888;SDS011;59762;49.998;14.858;2022-12-29T05:56:23;10.43;;;4.57;;
71888;SDS011;59762;49.998;14.858;2022-12-29T05:58:49;5.85;;;3.05;;
71888;SDS011;59762;49.998;14.858;2022-12-29T06:01:15;2.60;;;1.35;;
71888;SDS011;59762;49.998;14.858;2022-12-29T06:03:40;2.20;;;0.77;;
71888;SDS011;59762;49.998;14.858;2022-12-29T06:06:06;3.20;;;1.15;;
71888;SDS011;59762;49.998;14.858;2022-12-29T06:08:32;1.42;;;1.02;;
71888;SDS011;59762;49.998;14.858;2022-12-29T06:10:58;2.45;;;1.27;;
71888;SDS011;59762;49.998;14.858;2022-12-29T06:13:23;2.50;;;0.95;;
71888;SDS011;59762;49.998;14.858;2022-12-29T06:15:49;0.75;;;0.75;;
71888;SDS011;59762;49.998;14.858;2022-12-29T06:18:15;1.27;;;0.82;;
71888;SDS011;59762;49.998;14.858;2022-12-29T06:20:41;1.17;;;0.95;;
71888;SDS011;59762;49.998;14.858;2022-12-29T06:23:07;2.47;;;0.70;;
71888;SDS011;59762;49.998;14.858;2022-12-29T06:25:33;0.57;;;0.57;;
71888;SDS011;59762;49.998;14.858;2022-12-29T06:28:01;0.50;;;0.50;;
71888;SDS011;59762;49.998;14.858;2022-12-29T06:30:27;0.88;;;0.88;;
71888;SDS011;59762;49.998;14.858;2022-12-29T06:32:53;4.43;;;1.13;;
71888;SDS011;59762;49.998;14.858;2022-12-29T06:35:20;1.25;;;0.85;;
71888;SDS011;59762;49.998;14.858;2022-12-29T06:37:49;2.63;;;1.00;;
71888;SDS011;59762;49.998;14.858;2022-12-29T06:40:15;1.00;;;0.95;;
71888;SDS011;59762;49.998;14.858;2022-12-29T06:42:40;0.68;;;0.68;;
71888;SDS011;59762;49.998;14.858;2022-12-29T06:45:06;1.02;;;0.93;;
71888;SDS011;59762;49.998;14.858;2022-12-29T06:47:33;3.67;;;1.17;;
71888;SDS011;59762;49.998;14.858;2022-12-29T06:49:59;1.45;;;1.33;;
71888;SDS011;59762;49.998;14.858;2022-12-29T06:52:25;2.35;;;1.92;;
71888;SDS011;59762;49.998;14.858;2022-12-29T06:54:51;3.88;;;1.95;;
71888;SDS011;59762;49.998;14.858;2022-12-29T06:57:16;3.75;;;2.50;;
71888;SDS011;59762;49.998;14.858;2022-12-29T06:59:42;1.45;;;1.33;;
71888;SDS011;59762;49.998;14.858;2022-12-29T07:02:10;2.45;;;1.38;;
71888;SDS011;59762;49.998;14.858;2022-12-29T07:04:36;3.83;;;3.05;;
71888;SDS011;59762;49.998;14.858;2022-12-29T07:07:02;4.70;;;2.97;;
71888;SDS011;59762;49.998;14.858;2022-12-29T07:09:28;2.33;;;1.48;;
71888;SDS011;59762;49.998;14.858;2022-12-29T07:11:53;2.53;;;1.33;;
71888;SDS011;59762;49.998;14.858;2022-12-29T07:14:19;20.20;;;8.13;;
71888;SDS011;59762;49.998;14.858;2022-12-29T07:16:45;4.20;;;3.55;;
71888;SDS011;59762;49.998;14.858;2022-12-29T07:19:10;30.13;;;12.07;;
71888;SDS011;59762;49.998;14.858;2022-12-29T07:21:36;3.53;;;3.20;;
71888;SDS011;59762;49.998;14.858;2022-12-29T07:24:01;1.92;;;1.77;;
71888;SDS011;59762;49.998;14.858;2022-12-29T07:26:27;1.65;;;1.42;;
71888;SDS011;59762;49.998;14.858;2022-12-29T07:28:53;3.75;;;1.73;;
71888;SDS011;59762;49.998;14.858;2022-12-29T07:31:20;0.50;;;0.50;;
71888;SDS011;59762;49.998;14.858;2022-12-29T07:33:47;0.93;;;0.77;;
71888;SDS011;59762;49.998;14.858;2022-12-29T07:36:13;1.63;;;1.25;;
71888;SDS011;59762;49.998;14.858;2022-12-29T07:38:40;1.67;;;1.13;;
71888;SDS011;59762;49.998;14.858;2022-12-29T07:41:06;0.65;;;0.50;;
71888;SDS011;59762;49.998;14.858;2022-12-29T07:43:32;1.02;;;0.93;;
71888;SDS011;59762;49.998;14.858;2022-12-29T07:45:58;1.27;;;1.20;;
71888;SDS011;59762;49.998;14.858;2022-12-29T07:48:24;0.68;;;0.60;;
71888;SDS011;59762;49.998;14.858;2022-12-29T07:50:50;2.83;;;1.45;;
71888;SDS011;59762;49.998;14.858;2022-12-29T07:53:15;2.25;;;1.40;;
71888;SDS011;59762;49.998;14.858;2022-12-29T07:55:41;5.05;;;1.55;;
71888;SDS011;59762;49.998;14.858;2022-12-29T07:58:07;5.68;;;2.22;;
71888;SDS011;59762;49.998;14.858;2022-12-29T08:00:33;5.70;;;2.85;;
71888;SDS011;59762;49.998;14.858;2022-12-29T08:02:58;6.07;;;2.70;;
71888;SDS011;59762;49.998;14.858;2022-12-29T08:05:24;8.57;;;2.10;;
71888;SDS011;59762;49.998;14.858;2022-12-29T08:07:50;15.25;;;3.58;;
71888;SDS011;59762;49.998;14.858;2022-12-29T08:10:16;11.73;;;4.40;;
71888;SDS011;59762;49.998;14.858;2022-12-29T08:12:42;7.60;;;2.17;;
71888;SDS011;59762;49.998;14.858;2022-12-29T08:15:08;17.48;;;5.03;;
71888;SDS011;59762;49.998;14.858;2022-12-29T08:17:36;5.72;;;2.95;;
71888;SDS011;59762;49.998;14.858;2022-12-29T08:20:02;9.43;;;2.08;;
71888;SDS011;59762;49.998;14.858;2022-12-29T08:22:28;26.98;;;4.45;;
71888;SDS011;59762;49.998;14.858;2022-12-29T08:24:54;5.43;;;3.00;;
71888;SDS011;59762;49.998;14.858;2022-12-29T08:27:19;5.45;;;1.98;;
71888;SDS011;59762;49.998;14.858;2022-12-29T08:29:45;2.25;;;1.48;;
71888;SDS011;59762;49.998;14.858;2022-12-29T08:32:11;3.58;;;2.63;;
71888;SDS011;59762;49.998;14.858;2022-12-29T08:34:37;8.82;;;1.90;;
71888;SDS011;59762;49.998;14.858;2022-12-29T08:37:02;7.25;;;2.17;;
71888;SDS011;59762;49.998;14.858;2022-12-29T08:39:28;11.63;;;4.32;;
71888;SDS011;59762;49.998;14.858;2022-12-29T08:41:54;8.20;;;3.75;;
71888;SDS011;59762;49.998;14.858;2022-12-29T08:44:20;4.53;;;1.83;;
71888;SDS011;59762;49.998;14.858;2022-12-29T08:46:46;6.00;;;2.47;;
71888;SDS011;59762;49.998;14.858;2022-12-29T08:49:11;5.13;;;2.03;;
71888;SDS011;59762;49.998;14.858;2022-12-29T08:51:37;26.13;;;7.57;;
71888;SDS011;59762;49.998;14.858;2022-12-29T08:54:03;5.95;;;2.97;;
71888;SDS011;59762;49.998;14.858;2022-12-29T08:56:28;13.65;;;3.55;;
71888;SDS011;59762;49.998;14.858;2022-12-29T08:58:54;4.00;;;1.90;;
71888;SDS011;59762;49.998;14.858;2022-12-29T09:01:20;7.72;;;2.50;;
71888;SDS011;59762;49.998;14.858;2022-12-29T09:03:47;16.10;;;6.22;;
71888;SDS011;59762;49.998;14.858;2022-12-29T09:06:13;10.48;;;5.68;;
71888;SDS011;59762;49.998;14.858;2022-12-29T09:08:40;18.15;;;3.10;;
71888;SDS011;59762;49.998;14.858;2022-12-29T09:11:07;7.25;;;2.55;;
71888;SDS011;59762;49.998;14.858;2022-12-29T09:13:37;4.78;;;2.78;;
71888;SDS011;59762;49.998;14.858;2022-12-29T09:16:03;10.30;;;2.95;;
71888;SDS011;59762;49.998;14.858;2022-12-29T09:18:28;8.18;;;3.25;;
71888;SDS011;59762;49.998;14.858;2022-12-29T09:20:58;6.80;;;2.22;;
71888;SDS011;59762;49.998;14.858;2022-12-29T09:23:25;7.43;;;2.97;;
71888;SDS011;59762;49.998;14.858;2022-12-29T09:25:51;3.70;;;1.90;;
71888;SDS011;59762;49.998;14.858;2022-12-29T09:28:16;4.32;;;2.35;;
71888;SDS011;59762;49.998;14.858;2022-12-29T09:30:42;3.63;;;3.13;;
71888;SDS011;59762;49.998;14.858;2022-12-29T09:33:08;4.90;;;3.25;;
71888;SDS011;59762;49.998;14.858;2022-12-29T09:35:33;13.98;;;5.63;;
71888;SDS011;59762;49.998;14.858;2022-12-29T09:37:59;2.03;;;1.70;;
71888;SDS011;59762;49.998;14.858;2022-12-29T09:40:31;1.95;;;1.67;;
71888;SDS011;59762;49.998;14.858;2022-12-29T09:45:52;5.95;;;3.08;;
71888;SDS011;59762;49.998;14.858;2022-12-29T09:48:29;5.13;;;2.75;;
71888;SDS011;59762;49.998;14.858;2022-12-29T09:51:00;7.53;;;4.18;;
71888;SDS011;59762;49.998;14.858;2022-12-29T09:53:36;14.30;;;6.03;;
71888;SDS011;59762;49.998;14.858;2022-12-29T09:56:07;13.30;;;5.07;;
71888;SDS011;59762;49.998;14.858;2022-12-29T10:01:21;7.93;;;4.75;;
71888;SDS011;59762;49.998;14.858;2022-12-29T10:03:57;5.13;;;3.63;;
71888;SDS011;59762;49.998;14.858;2022-12-29T10:06:32;15.95;;;7.03;;
71888;SDS011;59762;49.998;14.858;2022-12-29T10:12:07;7.35;;;4.30;;
71888;SDS011;59762;49.998;14.858;2022-12-29T10:17:54;10.60;;;4.18;;
71888;SDS011;59762;49.998;14.858;2022-12-29T10:26:01;6.65;;;3.05;;
71888;SDS011;59762;49.998;14.858;2022-12-29T10:28:34;7.30;;;3.35;;
71888;SDS011;59762;49.998;14.858;2022-12-29T10:31:05;11.18;;;4.20;;
71888;SDS011;59762;49.998;14.858;2022-12-29T10:36:28;2.80;;;1.50;;
71888;SDS011;59762;49.998;14.858;2022-12-29T10:39:02;6.65;;;2.72;;
71888;SDS011;59762;49.998;14.858;2022-12-29T10:41:44;7.03;;;2.33;;
71888;SDS011;59762;49.998;14.858;2022-12-29T10:44:14;4.95;;;2.53;;
71888;SDS011;59762;49.998;14.858;2022-12-29T10:46:42;6.38;;;2.28;;
71888;SDS011;59762;49.998;14.858;2022-12-29T10:49:16;6.35;;;3.70;;
71888;SDS011;59762;49.998;14.858;2022-12-29T10:54:14;8.10;;;3.00;;
71888;SDS011;59762;49.998;14.858;2022-12-29T10:56:47;5.70;;;3.38;;
71888;SDS011;59762;49.998;14.858;2022-12-29T10:59:21;12.80;;;4.75;;
71888;SDS011;59762;49.998;14.858;2022-12-29T11:07:15;5.05;;;2.83;;
71888;SDS011;59762;49.998;14.858;2022-12-29T11:09:42;8.65;;;3.25;;
71888;SDS011;59762;49.998;14.858;2022-12-29T11:12:19;12.77;;;3.90;;
71888;SDS011;59762;49.998;14.858;2022-12-29T11:17:50;11.43;;;5.65;;
71888;SDS011;59762;49.998;14.858;2022-12-29T11:20:32;12.55;;;6.00;;
71888;SDS011;59762;49.998;14.858;2022-12-29T11:23:00;14.77;;;5.95;;
71888;SDS011;59762;49.998;14.858;2022-12-29T11:25:28;37.28;;;13.23;;
71888;SDS011;59762;49.998;14.858;2022-12-29T11:27:59;19.58;;;8.13;;
71888;SDS011;59762;49.998;14.858;2022-12-29T11:30:39;31.38;;;11.35;;
71888;SDS011;59762;49.998;14.858;2022-12-29T11:33:04;63.50;;;23.77;;
71888;SDS011;59762;49.998;14.858;2022-12-29T11:38:02;16.67;;;10.27;;
71888;SDS011;59762;49.998;14.858;2022-12-29T11:40:29;7.80;;;4.43;;
71888;SDS011;59762;49.998;14.858;2022-12-29T11:43:00;5.70;;;3.75;;
71888;SDS011;59762;49.998;14.858;2022-12-29T11:45:31;8.48;;;3.45;;
71888;SDS011;59762;49.998;14.858;2022-12-29T11:48:09;8.70;;;2.95;;
71888;SDS011;59762;49.998;14.858;2022-12-29T11:50:48;8.80;;;3.63;;
71888;SDS011;59762;49.998;14.858;2022-12-29T11:55:52;4.82;;;2.45;;
71888;SDS011;59762;49.998;14.858;2022-12-29T11:58:30;4.32;;;3.30;;
71888;SDS011;59762;49.998;14.858;2022-12-29T12:01:17;2.47;;;1.75;;
71888;SDS011;59762;49.998;14.858;2022-12-29T12:06:33;11.82;;;3.88;;
71888;SDS011;59762;49.998;14.858;2022-12-29T12:09:16;4.13;;;2.60;;
71888;SDS011;59762;49.998;14.858;2022-12-29T12:11:51;4.72;;;1.90;;
71888;SDS011;59762;49.998;14.858;2022-12-29T12:14:27;2.90;;;1.67;;
71888;SDS011;59762;49.998;14.858;2022-12-29T12:16:55;4.60;;;2.78;;
71888;SDS011;59762;49.998;14.858;2022-12-29T12:19:37;12.35;;;6.07;;
71888;SDS011;59762;49.998;14.858;2022-12-29T12:22:10;6.10;;;3.45;;
71888;SDS011;59762;49.998;14.858;2022-12-29T12:25:10;2.83;;;1.95;;
71888;SDS011;59762;49.998;14.858;2022-12-29T13:17:21;38.45;;;14.82;;
71888;SDS011;59762;49.998;14.858;2022-12-29T13:19:53;33.97;;;12.35;;
71888;SDS011;59762;49.998;14.858;2022-12-29T13:22:35;16.25;;;7.57;;
71888;SDS011;59762;49.998;14.858;2022-12-29T13:25:08;9.30;;;3.30;;
71888;SDS011;59762;49.998;14.858;2022-12-29T13:30:21;4.13;;;2.42;;
71888;SDS011;59762;49.998;14.858;2022-12-29T13:33:10;5.95;;;1.65;;
71888;SDS011;59762;49.998;14.858;2022-12-29T13:36:05;3.10;;;1.48;;
71888;SDS011;59762;49.998;14.858;2022-12-29T13:38:46;7.28;;;4.10;;
71888;SDS011;59762;49.998;14.858;2022-12-29T13:44:23;7.53;;;2.67;;
71888;SDS011;59762;49.998;14.858;2022-12-29T13:46:52;11.23;;;3.70;;
71888;SDS011;59762;49.998;14.858;2022-12-29T13:49:22;8.68;;;4.63;;
71888;SDS011;59762;49.998;14.858;2022-12-29T13:51:52;6.95;;;4.05;;
71888;SDS011;59762;49.998;14.858;2022-12-29T13:57:05;11.75;;;5.00;;
71888;SDS011;59762;49.998;14.858;2022-12-29T13:59:42;17.83;;;6.47;;
71888;SDS011;59762;49.998;14.858;2022-12-29T14:05:00;11.95;;;4.53;;
71888;SDS011;59762;49.998;14.858;2022-12-29T14:07:29;12.43;;;4.07;;
71888;SDS011;59762;49.998;14.858;2022-12-29T14:10:02;35.17;;;15.20;;
71888;SDS011;59762;49.998;14.858;2022-12-29T14:12:33;11.15;;;4.82;;
71888;SDS011;59762;49.998;14.858;2022-12-29T14:15:04;11.27;;;4.43;;
71888;SDS011;59762;49.998;14.858;2022-12-29T14:17:32;13.15;;;5.97;;
71888;SDS011;59762;49.998;14.858;2022-12-29T14:19:58;21.10;;;5.93;;
71888;SDS011;59762;49.998;14.858;2022-12-29T14:22:24;25.45;;;7.13;;
71888;SDS011;59762;49.998;14.858;2022-12-29T14:24:51;23.90;;;6.65;;
71888;SDS011;59762;49.998;14.858;2022-12-29T14:29:46;26.77;;;7.57;;
71888;SDS011;59762;49.998;14.858;2022-12-29T14:34:45;21.83;;;7.40;;
71888;SDS011;59762;49.998;14.858;2022-12-29T14:37:44;94.60;;;34.15;;
71888;SDS011;59762;49.998;14.858;2022-12-29T14:42:51;21.25;;;9.70;;
71888;SDS011;59762;49.998;14.858;2022-12-29T14:47:45;27.33;;;8.48;;
71888;SDS011;59762;49.998;14.858;2022-12-29T14:56:10;28.88;;;10.45;;
71888;SDS011;59762;49.998;14.858;2022-12-29T14:58:44;37.10;;;12.20;;
71888;SDS011;59762;49.998;14.858;2022-12-29T15:03:59;16.52;;;7.57;;
71888;SDS011;59762;49.998;14.858;2022-12-29T15:06:29;26.35;;;8.85;;
71888;SDS011;59762;49.998;14.858;2022-12-29T15:09:56;24.33;;;8.70;;
71888;SDS011;59762;49.998;14.858;2022-12-29T15:11:52;21.80;;;6.43;;
71888;SDS011;59762;49.998;14.858;2022-12-29T15:14:34;23.00;;;7.23;;
71888;SDS011;59762;49.998;14.858;2022-12-29T15:17:08;16.88;;;8.32;;
71888;SDS011;59762;49.998;14.858;2022-12-29T15:20:29;11.82;;;5.20;;
71888;SDS011;59762;49.998;14.858;2022-12-29T15:23:03;27.77;;;12.07;;
71888;SDS011;59762;49.998;14.858;2022-12-29T15:25:59;32.45;;;15.20;;
71888;SDS011;59762;49.998;14.858;2022-12-29T15:28:36;66.18;;;24.05;;
71888;SDS011;59762;49.998;14.858;2022-12-29T15:31:14;34.70;;;15.07;;
71888;SDS011;59762;49.998;14.858;2022-12-29T15:33:50;28.77;;;13.07;;
71888;SDS011;59762;49.998;14.858;2022-12-29T15:36:27;63.08;;;25.52;;
71888;SDS011;59762;49.998;14.858;2022-12-29T15:38:54;58.35;;;22.17;;
71888;SDS011;59762;49.998;14.858;2022-12-29T15:41:41;103.70;;;42.22;;
71888;SDS011;59762;49.998;14.858;2022-12-29T15:44:28;51.22;;;20.58;;
71888;SDS011;59762;49.998;14.858;2022-12-29T15:47:01;36.58;;;14.27;;
71888;SDS011;59762;49.998;14.858;2022-12-29T15:49:31;13.48;;;6.28;;
71888;SDS011;59762;49.998;14.858;2022-12-29T15:51:58;16.55;;;5.93;;
71888;SDS011;59762;49.998;14.858;2022-12-29T15:54:24;12.15;;;5.30;;
71888;SDS011;59762;49.998;14.858;2022-12-29T15:56:54;13.32;;;5.10;;
71888;SDS011;59762;49.998;14.858;2022-12-29T15:59:27;20.35;;;7.82;;
71888;SDS011;59762;49.998;14.858;2022-12-29T16:01:59;13.60;;;6.18;;
71888;SDS011;59762;49.998;14.858;2022-12-29T16:04:29;13.88;;;7.63;;
71888;SDS011;59762;49.998;14.858;2022-12-29T16:07:00;20.25;;;6.40;;
71888;SDS011;59762;49.998;14.858;2022-12-29T16:09:35;19.92;;;7.72;;
71888;SDS011;59762;49.998;14.858;2022-12-29T16:12:15;23.75;;;8.10;;
71888;SDS011;59762;49.998;14.858;2022-12-29T16:14:51;14.43;;;6.25;;
71888;SDS011;59762;49.998;14.858;2022-12-29T16:17:22;22.70;;;6.88;;
71888;SDS011;59762;49.998;14.858;2022-12-29T16:19:57;19.60;;;7.10;;
71888;SDS011;59762;49.998;14.858;2022-12-29T16:22:45;14.25;;;7.03;;
71888;SDS011;59762;49.998;14.858;2022-12-29T16:25:22;14.88;;;6.07;;
71888;SDS011;59762;49.998;14.858;2022-12-29T16:27:48;15.32;;;7.07;;
71888;SDS011;59762;49.998;14.858;2022-12-29T16:30:28;11.77;;;5.78;;
71888;SDS011;59762;49.998;14.858;2022-12-29T16:32:59;15.93;;;6.13;;
71888;SDS011;59762;49.998;14.858;2022-12-29T16:35:27;14.57;;;8.13;;
71888;SDS011;59762;49.998;14.858;2022-12-29T16:38:20;17.50;;;6.85;;
71888;SDS011;59762;49.998;14.858;2022-12-29T16:40:52;12.43;;;7.30;;
71888;SDS011;59762;49.998;14.858;2022-12-29T16:43:29;25.20;;;8.80;;
71888;SDS011;59762;49.998;14.858;2022-12-29T16:48:25;26.40;;;8.48;;
71888;SDS011;59762;49.998;14.858;2022-12-29T16:51:01;31.58;;;8.75;;
71888;SDS011;59762;49.998;14.858;2022-12-29T16:53:37;20.40;;;8.65;;
71888;SDS011;59762;49.998;14.858;2022-12-29T16:58:34;50.22;;;13.73;;
71888;SDS011;59762;49.998;14.858;2022-12-29T17:01:00;11.38;;;4.85;;
71888;SDS011;59762;49.998;14.858;2022-12-29T17:03:34;10.43;;;4.55;;
71888;SDS011;59762;49.998;14.858;2022-12-29T17:06:05;20.60;;;6.07;;
71888;SDS011;59762;49.998;14.858;2022-12-29T17:08:39;6.68;;;4.35;;
71888;SDS011;59762;49.998;14.858;2022-12-29T17:11:08;14.93;;;4.95;;
71888;SDS011;59762;49.998;14.858;2022-12-29T17:14:04;20.17;;;7.90;;
71888;SDS011;59762;49.998;14.858;2022-12-29T17:16:29;18.80;;;8.43;;
71888;SDS011;59762;49.998;14.858;2022-12-29T17:18:55;20.95;;;8.00;;
71888;SDS011;59762;49.998;14.858;2022-12-29T17:21:21;18.40;;;8.63;;
71888;SDS011;59762;49.998;14.858;2022-12-29T17:23:47;11.45;;;4.90;;
71888;SDS011;59762;49.998;14.858;2022-12-29T17:26:12;24.30;;;6.82;;
71888;SDS011;59762;49.998;14.858;2022-12-29T17:28:38;17.27;;;6.35;;
71888;SDS011;59762;49.998;14.858;2022-12-29T17:31:05;12.68;;;4.90;;
71888;SDS011;59762;49.998;14.858;2022-12-29T17:33:35;7.63;;;4.20;;